Time;durP1;ratioP1;P1;durP2;ratioP2;P2;SDS_P1;SDS_P2;PMS_P1;PMS_P2;Temp;Humidity;BMP_temperature;BMP_pressure;BME280_temperature;BME280_humidity;BME280_pressure;Samples;Min_cycle;Max_cycle;Signal;HPM_P1;HPM_P2
2021/04/01 00:02:03;;;;;;;8.90;5.20;;;14.20;64.40;;;;;;5072198;28;20210;-73
2021/04/01 00:04:29;;;;;;;8.48;5.85;;;14.10;64.90;;;;;;5072625;28;20202;-73
2021/04/01 00:06:56;;;;;;;8.25;6.10;;;14.20;65.30;;;;;;5075592;28;20264;-72
2021/04/01 00:09:22;;;;;;;8.02;5.63;;;14.10;65.30;;;;;;5075944;28;20576;-72
2021/04/01 00:11:48;;;;;;;7.75;5.32;;;14.10;65.00;;;;;;5075932;28;20205;-72
2021/04/01 00:14:18;;;;;;;10.48;7.53;;;14.00;65.10;;;;;;5075634;28;20293;-68
2021/04/01 00:16:45;;;;;;;9.57;6.18;;;14.00;64.80;;;;;;5075088;28;20226;-73
2021/04/01 00:19:11;;;;;;;6.95;5.97;;;14.00;65.30;;;;;;5075800;28;20241;-74
2021/04/01 00:21:38;;;;;;;11.32;6.15;;;14.00;65.40;;;;;;5075917;28;20244;-72
2021/04/01 00:24:05;;;;;;;8.63;5.80;;;14.00;66.40;;;;;;5075934;28;20667;-71
2021/04/01 00:26:31;;;;;;;7.75;6.25;;;14.00;66.60;;;;;;5074909;28;20231;-73
2021/04/01 00:28:57;;;;;;;7.38;5.85;;;13.90;66.60;;;;;;5075397;28;20302;-71
2021/04/01 00:31:24;;;;;;;8.98;6.03;;;13.90;66.80;;;;;;5075170;28;20304;-73
2021/04/01 00:33:51;;;;;;;8.10;5.75;;;13.80;66.70;;;;;;5075545;28;20293;-72
2021/04/01 00:36:17;;;;;;;7.15;5.85;;;13.70;67.00;;;;;;5074994;28;20257;-73
2021/04/01 00:38:43;;;;;;;8.60;6.22;;;13.70;67.00;;;;;;5075270;28;20209;-73
2021/04/01 00:41:10;;;;;;;12.10;5.85;;;13.70;67.00;;;;;;5075673;28;20553;-72
2021/04/01 00:43:36;;;;;;;7.15;5.20;;;13.70;67.10;;;;;;5074989;28;20351;-73
2021/04/01 00:46:03;;;;;;;9.60;6.28;;;13.70;66.90;;;;;;5074856;28;20309;-72
2021/04/01 00:48:30;;;;;;;10.30;6.25;;;13.70;66.50;;;;;;5074849;28;20203;-72
2021/04/01 00:50:56;;;;;;;9.70;6.65;;;13.70;67.30;;;;;;5075361;28;20202;-72
2021/04/01 00:53:22;;;;;;;9.82;5.97;;;13.60;67.30;;;;;;5075242;28;20217;-72
2021/04/01 00:55:49;;;;;;;9.20;6.10;;;13.60;67.70;;;;;;5074566;28;20771;-72
2021/04/01 00:58:16;;;;;;;10.88;5.80;;;13.60;68.00;;;;;;5074578;28;20203;-72
2021/04/01 01:00:42;;;;;;;9.48;5.85;;;13.60;67.80;;;;;;5075253;28;20253;-72
2021/04/01 01:03:09;;;;;;;10.10;5.30;;;13.70;67.00;;;;;;5074927;28;20238;-72
2021/04/01 01:05:36;;;;;;;5.82;5.05;;;13.70;66.90;;;;;;5074407;28;20314;-73
2021/04/01 01:08:02;;;;;;;9.32;5.85;;;13.70;67.00;;;;;;5074638;28;20297;-73
2021/04/01 01:10:31;;;;;;;10.07;5.68;;;13.70;67.90;;;;;;5075299;28;20202;-69
2021/04/01 01:12:58;;;;;;;6.50;5.03;;;13.60;68.40;;;;;;5076379;28;20245;-69
2021/04/01 01:15:25;;;;;;;9.57;6.13;;;13.60;68.40;;;;;;5075729;28;20693;-68
2021/04/01 01:17:52;;;;;;;7.82;5.15;;;13.60;68.20;;;;;;5075924;28;20198;-68
2021/04/01 01:20:21;;;;;;;7.30;5.30;;;13.40;68.50;;;;;;5075955;28;20724;-68
2021/04/01 01:22:50;;;;;;;6.53;5.10;;;13.40;69.00;;;;;;5076150;28;20206;-68
2021/04/01 01:25:19;;;;;;;9.23;6.07;;;13.30;69.10;;;;;;5075762;28;20697;-68
2021/04/01 01:27:45;;;;;;;8.10;5.22;;;13.30;69.40;;;;;;5075347;28;20641;-69
2021/04/01 01:30:14;;;;;;;8.30;6.32;;;13.30;69.10;;;;;;5075795;28;20209;-68
2021/04/01 01:32:43;;;;;;;8.27;5.80;;;13.40;69.40;;;;;;5075861;28;20337;-68
2021/04/01 01:35:16;;;;;;;7.65;5.90;;;13.40;69.40;;;;;;5075794;28;20248;-68
2021/04/01 01:37:53;;;;;;;10.48;6.40;;;13.40;70.20;;;;;;5075526;28;20225;-68
2021/04/01 01:40:21;;;;;;;7.10;6.07;;;13.40;71.30;;;;;;5075561;28;20289;-68
2021/04/01 01:42:49;;;;;;;9.27;6.32;;;13.40;72.10;;;;;;5075587;28;20207;-68
2021/04/01 01:45:16;;;;;;;7.47;6.00;;;13.30;72.60;;;;;;5075054;28;20226;-69
2021/04/01 01:47:43;;;;;;;8.73;6.30;;;13.30;73.20;;;;;;5075325;28;20238;-68
2021/04/01 01:50:11;;;;;;;7.55;5.97;;;13.20;73.30;;;;;;5075205;28;20255;-68
2021/04/01 01:52:38;;;;;;;10.23;6.47;;;13.10;73.70;;;;;;5075105;28;20206;-68
2021/04/01 01:55:06;;;;;;;9.65;6.05;;;13.00;74.30;;;;;;5075025;28;20267;-68
2021/04/01 01:57:34;;;;;;;10.48;6.35;;;12.90;74.70;;;;;;5074951;28;20294;-68
2021/04/01 02:00:00;;;;;;;10.75;6.80;;;13.00;74.80;;;;;;5075379;28;20297;-68
2021/04/01 02:02:27;;;;;;;9.30;5.93;;;13.00;75.00;;;;;;5075354;28;20294;-68
2021/04/01 02:04:53;;;;;;;7.70;5.85;;;13.00;75.20;;;;;;5075105;28;20325;-68
2021/04/01 02:07:19;;;;;;;8.07;5.97;;;13.00;74.30;;;;;;5074847;28;20213;-68
2021/04/01 02:09:46;;;;;;;9.80;6.30;;;13.10;74.40;;;;;;5074971;28;20294;-68
2021/04/01 02:12:14;;;;;;;7.10;5.93;;;13.00;74.60;;;;;;5074832;28;20202;-68
2021/04/01 02:14:41;;;;;;;9.93;6.35;;;13.10;75.30;;;;;;5075012;28;20289;-68
2021/04/01 02:17:08;;;;;;;8.93;6.00;;;13.10;74.90;;;;;;5074613;28;20295;-68
2021/04/01 02:19:35;;;;;;;10.88;6.30;;;13.10;74.30;;;;;;5075070;28;20199;-68
2021/04/01 02:22:01;;;;;;;10.40;6.55;;;13.00;74.10;;;;;;5074713;28;20297;-69
2021/04/01 02:24:27;;;;;;;12.00;6.72;;;13.00;74.20;;;;;;5074717;28;20531;-69
2021/04/01 02:26:55;;;;;;;10.32;5.88;;;13.00;75.20;;;;;;5073880;28;20318;-68
2021/04/01 02:29:22;;;;;;;11.00;6.15;;;12.90;76.00;;;;;;5074862;28;20576;-69
2021/04/01 02:31:49;;;;;;;12.02;7.50;;;12.90;76.70;;;;;;5074781;28;20659;-68
2021/04/01 02:34:16;;;;;;;12.07;6.72;;;12.80;77.20;;;;;;5074448;28;20538;-68
2021/04/01 02:36:43;;;;;;;8.60;6.50;;;12.80;77.40;;;;;;5074264;28;20227;-68
2021/04/01 02:39:09;;;;;;;10.90;6.05;;;12.80;76.60;;;;;;5074490;28;20279;-69
2021/04/01 02:41:35;;;;;;;11.32;5.95;;;12.80;76.60;;;;;;5074351;28;20678;-69
2021/04/01 02:44:02;;;;;;;8.43;5.90;;;12.70;76.70;;;;;;5074234;28;20211;-69
2021/04/01 02:46:28;;;;;;;7.35;5.75;;;12.80;76.80;;;;;;5073605;28;20705;-69
2021/04/01 02:48:55;;;;;;;9.10;6.47;;;12.80;77.00;;;;;;5074179;28;20289;-69
2021/04/01 02:51:21;;;;;;;10.25;6.05;;;12.70;77.50;;;;;;5074198;28;20665;-68
2021/04/01 02:53:48;;;;;;;8.45;6.53;;;12.70;77.70;;;;;;5074299;28;20203;-68
2021/04/01 02:56:14;;;;;;;10.90;6.18;;;12.60;77.70;;;;;;5073879;28;20233;-69
2021/04/01 02:58:40;;;;;;;8.73;5.72;;;12.60;77.80;;;;;;5074351;28;20203;-69
2021/04/01 03:01:08;;;;;;;7.15;5.75;;;12.60;77.40;;;;;;5074342;28;20207;-68
2021/04/01 03:03:37;;;;;;;9.00;6.03;;;12.60;77.70;;;;;;5073716;28;20709;-68
2021/04/01 03:06:05;;;;;;;9.50;6.22;;;12.60;77.70;;;;;;5073859;28;20223;-69
2021/04/01 03:08:32;;;;;;;11.02;6.47;;;12.50;77.40;;;;;;5074089;28;20238;-68
2021/04/01 03:10:58;;;;;;;10.20;6.68;;;12.50;77.90;;;;;;5073719;28;20621;-68
2021/04/01 03:13:25;;;;;;;8.77;6.10;;;12.50;78.20;;;;;;5074178;28;20209;-68
2021/04/01 03:15:52;;;;;;;10.63;6.07;;;12.40;78.60;;;;;;5073444;28;20228;-68
2021/04/01 03:18:18;;;;;;;9.38;6.43;;;12.40;78.50;;;;;;5073481;28;20202;-68
2021/04/01 03:20:45;;;;;;;7.63;6.10;;;12.40;79.30;;;;;;5073674;28;20298;-68
2021/04/01 03:23:12;;;;;;;9.52;6.60;;;12.40;78.80;;;;;;5073814;28;20207;-68
2021/04/01 03:25:38;;;;;;;9.85;6.15;;;12.40;79.10;;;;;;5073501;28;20668;-68
2021/04/01 03:28:05;;;;;;;9.18;6.15;;;12.30;79.30;;;;;;5073523;28;20672;-68
2021/04/01 03:30:32;;;;;;;8.15;5.72;;;12.30;79.60;;;;;;5073585;28;20222;-68
2021/04/01 03:32:58;;;;;;;8.07;6.07;;;12.20;80.10;;;;;;5073703;28;20207;-68
2021/04/01 03:35:24;;;;;;;8.23;5.60;;;12.20;80.40;;;;;;5073674;28;20218;-68
2021/04/01 03:37:52;;;;;;;8.60;5.93;;;12.20;80.40;;;;;;5073670;28;20557;-68
2021/04/01 03:40:20;;;;;;;9.68;6.25;;;12.20;80.90;;;;;;5076385;28;20203;-68
2021/04/01 03:42:46;;;;;;;8.98;6.10;;;12.10;80.70;;;;;;5077520;28;20209;-68
2021/04/01 03:45:15;;;;;;;8.95;6.15;;;12.10;81.20;;;;;;5077196;28;20238;-68
2021/04/01 03:47:42;;;;;;;8.70;6.40;;;12.10;81.20;;;;;;5077333;28;20657;-68
2021/04/01 03:50:11;;;;;;;10.25;6.32;;;12.10;81.70;;;;;;5077591;28;20210;-68
2021/04/01 03:52:38;;;;;;;9.80;7.10;;;12.10;82.00;;;;;;5077645;28;20287;-68
2021/04/01 03:55:11;;;;;;;9.80;6.55;;;12.10;82.10;;;;;;5077588;28;20322;-68
2021/04/01 03:57:39;;;;;;;9.10;5.93;;;12.00;82.00;;;;;;5077292;28;20220;-68
2021/04/01 04:00:11;;;;;;;9.00;6.32;;;11.90;82.60;;;;;;5077407;28;20209;-68
2021/04/01 04:05:33;;;;;;;8.13;5.90;;;12.00;82.90;;;;;;5076869;28;20222;-68
2021/04/01 04:08:12;;;;;;;10.45;6.07;;;12.00;83.30;;;;;;5077187;28;20237;-68
2021/04/01 04:10:46;;;;;;;7.70;6.45;;;11.90;83.50;;;;;;5077124;28;20214;-68
2021/04/01 04:13:23;;;;;;;8.65;6.80;;;11.80;84.20;;;;;;5077390;28;20202;-68
2021/04/01 04:15:49;;;;;;;8.23;6.68;;;11.80;84.80;;;;;;5077306;28;20223;-68
2021/04/01 04:18:16;;;;;;;10.45;7.30;;;11.80;84.80;;;;;;5077186;28;20203;-68
2021/04/01 04:20:42;;;;;;;8.80;6.72;;;11.80;84.80;;;;;;5076773;28;20293;-68
2021/04/01 04:23:11;;;;;;;12.93;6.85;;;11.80;85.00;;;;;;5077084;28;20209;-68
2021/04/01 04:25:38;;;;;;;7.55;6.00;;;11.80;85.00;;;;;;5076411;28;20258;-68
2021/04/01 04:28:14;;;;;;;11.95;6.68;;;11.80;85.30;;;;;;5076889;28;20290;-68
2021/04/01 04:30:41;;;;;;;9.63;6.75;;;11.80;85.90;;;;;;5076591;28;20206;-68
2021/04/01 04:33:07;;;;;;;9.38;5.75;;;11.80;85.80;;;;;;5076693;28;20199;-68
2021/04/01 04:35:34;;;;;;;9.48;6.20;;;11.70;86.00;;;;;;5076897;28;20309;-68
2021/04/01 04:38:00;;;;;;;9.30;6.40;;;11.80;85.80;;;;;;5076668;28;20209;-68
2021/04/01 04:40:27;;;;;;;10.20;6.32;;;11.80;85.70;;;;;;5076892;28;20553;-68
2021/04/01 04:42:53;;;;;;;10.25;5.97;;;11.80;86.00;;;;;;5076918;28;20541;-68
2021/04/01 04:45:21;;;;;;;8.93;6.15;;;11.80;86.50;;;;;;5075952;28;20753;-68
2021/04/01 04:47:48;;;;;;;8.55;6.15;;;11.70;86.90;;;;;;5076361;28;20576;-68
2021/04/01 04:50:15;;;;;;;14.23;7.00;;;11.70;87.30;;;;;;5076127;28;20344;-68
2021/04/01 04:52:41;;;;;;;8.98;6.50;;;11.70;86.90;;;;;;5076606;28;20203;-68
2021/04/01 04:55:10;;;;;;;9.48;5.85;;;11.70;87.30;;;;;;5076413;28;20226;-68
2021/04/01 04:57:40;;;;;;;12.32;7.07;;;11.60;87.50;;;;;;5076514;28;20669;-68
2021/04/01 05:05:33;;;;;;;13.25;6.28;;;11.60;87.90;;;;;;5076373;28;20754;-68
2021/04/01 05:08:00;;;;;;;9.05;6.00;;;11.60;88.00;;;;;;5076103;28;20203;-68
2021/04/01 05:10:26;;;;;;;10.82;5.82;;;11.70;87.80;;;;;;5076267;28;20614;-68
2021/04/01 05:13:03;;;;;;;11.25;6.10;;;11.60;88.10;;;;;;5076042;28;20245;-68
2021/04/01 05:15:30;;;;;;;8.00;6.35;;;11.70;88.50;;;;;;5075811;28;20222;-68
2021/04/01 05:18:03;;;;;;;8.65;6.00;;;11.70;88.60;;;;;;5075912;28;20518;-68
2021/04/01 05:20:29;;;;;;;10.48;6.20;;;11.70;88.60;;;;;;5076289;28;20206;-68
2021/04/01 05:23:02;;;;;;;9.63;6.20;;;11.90;87.90;;;;;;5076285;28;20230;-68
2021/04/01 05:25:29;;;;;;;7.10;5.43;;;11.90;87.40;;;;;;5075376;28;20222;-68
2021/04/01 05:27:58;;;;;;;9.70;5.55;;;12.00;87.20;;;;;;5075562;28;20645;-68
2021/04/01 05:30:25;;;;;;;9.60;6.30;;;12.00;88.20;;;;;;5075930;28;20256;-68
2021/04/01 05:32:51;;;;;;;9.50;6.10;;;11.90;89.30;;;;;;5075588;28;20568;-68
2021/04/01 05:35:18;;;;;;;8.40;5.95;;;12.00;88.40;;;;;;5075926;28;20222;-68
2021/04/01 05:37:45;;;;;;;8.30;5.70;;;12.00;88.60;;;;;;5075381;28;20253;-68
2021/04/01 05:40:14;;;;;;;9.20;6.32;;;12.10;89.10;;;;;;5075647;28;20203;-68
2021/04/01 05:42:44;;;;;;;8.38;6.10;;;12.10;88.40;;;;;;5075666;28;20202;-68
2021/04/01 05:45:14;;;;;;;9.52;5.93;;;12.00;89.40;;;;;;5074984;28;20284;-68
2021/04/01 05:47:44;;;;;;;7.18;5.53;;;12.10;88.90;;;;;;5075003;28;20213;-68
2021/04/01 05:50:21;;;;;;;8.23;5.75;;;12.20;88.90;;;;;;5075253;28;20207;-68
2021/04/01 06:01:31;;;;;;;8.05;6.65;;;12.40;90.10;;;;;;5071598;28;20202;-68
2021/04/01 06:04:07;;;;;;;8.82;6.63;;;12.40;90.70;;;;;;5075002;28;20260;-68
2021/04/01 06:06:41;;;;;;;10.48;8.07;;;12.20;91.00;;;;;;5074408;28;20219;-68
2021/04/01 06:09:20;;;;;;;10.38;7.38;;;12.00;91.10;;;;;;5074995;28;20289;-68
2021/04/01 06:11:50;;;;;;;11.10;7.13;;;12.00;91.50;;;;;;5075146;28;20213;-68
2021/04/01 06:14:22;;;;;;;9.65;7.10;;;12.00;91.40;;;;;;5075098;28;20199;-68
2021/04/01 06:16:48;;;;;;;9.10;6.60;;;12.10;91.00;;;;;;5074567;28;20219;-68
2021/04/01 06:19:16;;;;;;;13.45;7.32;;;12.00;90.80;;;;;;5074638;28;20207;-68
2021/04/01 06:21:45;;;;;;;14.43;7.13;;;11.90;91.10;;;;;;5074814;28;20202;-68
2021/04/01 06:24:26;;;;;;;9.57;7.28;;;11.80;91.50;;;;;;5074592;28;20293;-68
2021/04/01 06:26:59;;;;;;;8.40;6.35;;;11.70;91.80;;;;;;5074227;28;20692;-68
2021/04/01 06:29:28;;;;;;;12.65;7.30;;;11.90;92.10;;;;;;5074971;28;20210;-68
2021/04/01 06:31:56;;;;;;;10.35;7.13;;;12.10;92.10;;;;;;5074474;28;20301;-68
2021/04/01 06:34:36;;;;;;;9.73;6.82;;;12.30;92.10;;;;;;5074539;28;20264;-68
2021/04/01 06:37:04;;;;;;;8.00;6.50;;;12.50;91.50;;;;;;5074306;28;20323;-68
2021/04/01 06:39:31;;;;;;;9.55;7.30;;;12.60;91.50;;;;;;5074548;28;20203;-68
2021/04/01 06:42:10;;;;;;;9.18;6.72;;;12.70;91.30;;;;;;5074680;28;20213;-68
2021/04/01 06:44:44;;;;;;;9.80;7.50;;;12.80;91.00;;;;;;5073920;28;20296;-68
2021/04/01 06:47:16;;;;;;;8.23;7.00;;;12.80;90.70;;;;;;5074235;28;20231;-68
2021/04/01 06:49:57;;;;;;;10.45;7.10;;;12.80;91.30;;;;;;5074032;28;20240;-68
2021/04/01 06:52:34;;;;;;;11.13;7.47;;;12.80;91.00;;;;;;5074796;28;20577;-68
2021/04/01 06:55:09;;;;;;;11.75;8.00;;;12.70;90.10;;;;;;5074004;28;20230;-68
2021/04/01 07:00:35;;;;;;;12.65;7.78;;;12.60;91.80;;;;;;5070779;28;20272;-68
2021/04/01 07:03:05;;;;;;;9.60;6.85;;;12.60;91.60;;;;;;5074420;28;20213;-68
2021/04/01 07:05:46;;;;;;;9.10;7.72;;;12.80;91.80;;;;;;5073547;28;20232;-68
2021/04/01 07:08:14;;;;;;;8.20;6.70;;;13.00;91.80;;;;;;5073974;28;20217;-68
2021/04/01 07:10:51;;;;;;;9.40;7.22;;;13.20;91.70;;;;;;5073685;28;20207;-68
2021/04/01 07:13:24;;;;;;;9.10;6.50;;;13.10;90.90;;;;;;5074127;28;20653;-68
2021/04/01 07:15:52;;;;;;;10.50;7.65;;;13.00;91.20;;;;;;5073961;28;20222;-68
2021/04/01 07:18:31;;;;;;;9.90;6.43;;;12.80;91.40;;;;;;5073814;28;20199;-68
2021/04/01 07:46:39;;;;;;;14.52;7.82;;;13.60;91.30;;;;;;5071759;28;20245;-68
2021/04/01 07:49:21;;;;;;;10.20;7.80;;;13.80;90.90;;;;;;5072360;28;20272;-69
2021/04/01 07:52:01;;;;;;;9.57;7.60;;;14.00;90.60;;;;;;5072103;28;20559;-69
2021/04/01 07:54:36;;;;;;;9.55;7.82;;;14.30;90.50;;;;;;5071932;28;20255;-69
2021/04/01 07:57:21;;;;;;;11.30;8.13;;;14.50;89.40;;;;;;5071845;28;20292;-69
2021/04/01 07:59:58;;;;;;;10.20;7.35;;;14.80;89.20;;;;;;5072435;28;20630;-69
2021/04/01 08:02:34;;;;;;;15.23;8.00;;;15.10;86.80;;;;;;5071965;28;20205;-69
2021/04/01 08:05:02;;;;;;;12.38;7.60;;;15.40;85.90;;;;;;5071878;28;20711;-69
2021/04/01 08:07:31;;;;;;;9.80;7.78;;;15.50;85.70;;;;;;5071662;28;20640;-71
2021/04/01 08:10:05;;;;;;;11.50;7.70;;;15.80;84.60;;;;;;5072369;28;20202;-74
2021/04/01 08:12:40;;;;;;;8.65;7.22;;;16.00;84.00;;;;;;5072287;28;20261;-75
2021/04/01 08:15:11;;;;;;;10.20;7.40;;;16.20;83.00;;;;;;5071880;28;20220;-75
2021/04/01 08:17:53;;;;;;;12.00;8.32;;;16.40;82.60;;;;;;5071998;28;20207;-74
2021/04/01 08:20:26;;;;;;;10.00;7.72;;;16.50;80.50;;;;;;5072538;28;20201;-74
2021/04/01 08:23:03;;;;;;;9.02;7.57;;;16.60;80.80;;;;;;5071500;28;20216;-73
2021/04/01 08:25:34;;;;;;;11.95;8.15;;;16.70;80.80;;;;;;5073304;28;20240;-70
2021/04/01 08:28:17;;;;;;;11.10;7.70;;;16.70;78.90;;;;;;5076903;28;20210;-68
2021/04/01 08:33:39;;;;;;;10.38;7.90;;;16.90;80.80;;;;;;5076920;28;20203;-68
2021/04/01 08:36:10;;;;;;;8.93;7.25;;;17.10;80.70;;;;;;5076755;28;20222;-68
2021/04/01 08:38:40;;;;;;;9.98;7.38;;;17.30;80.50;;;;;;5076484;28;20206;-68
2021/04/01 08:41:15;;;;;;;10.07;7.82;;;17.40;76.90;;;;;;5076697;28;20230;-68
2021/04/01 08:44:20;;;;;;;10.65;7.80;;;17.40;76.80;;;;;;5076417;28;20213;-69
2021/04/01 08:47:10;;;;;;;9.68;7.25;;;17.60;76.20;;;;;;5040936;28;20240;-68
2021/04/01 08:49:44;;;;;;;9.93;7.93;;;17.70;75.60;;;;;;5076598;28;20210;-68
2021/04/01 08:52:46;;;;;;;9.90;7.45;;;17.60;76.30;;;;;;5076978;28;20553;-68
2021/04/01 08:55:16;;;;;;;11.57;7.43;;;17.70;76.20;;;;;;5076177;28;20261;-68
2021/04/01 08:58:00;;;;;;;9.25;7.20;;;18.00;76.00;;;;;;5076329;28;20221;-68
2021/04/01 09:00:31;;;;;;;9.00;6.57;;;18.30;75.30;;;;;;5076512;28;20234;-68
2021/04/01 09:02:59;;;;;;;8.80;6.85;;;18.70;74.90;;;;;;5076215;28;20183;-69
2021/04/01 09:05:26;;;;;;;7.22;6.40;;;19.30;74.00;;;;;;5076177;28;20318;-68
2021/04/01 09:07:58;;;;;;;7.15;6.30;;;19.80;72.60;;;;;;5076810;28;20257;-68
2021/04/01 09:10:29;;;;;;;7.22;6.45;;;20.10;70.60;;;;;;5076147;28;20245;-69
2021/04/01 09:12:59;;;;;;;8.80;6.80;;;20.40;68.50;;;;;;5076153;28;20193;-69
2021/04/01 09:15:34;;;;;;;7.27;6.50;;;20.50;67.00;;;;;;5076294;28;20468;-69
2021/04/01 09:18:02;;;;;;;6.20;5.07;;;20.80;67.70;;;;;;5076316;28;20908;-69
2021/04/01 09:20:28;;;;;;;6.70;5.67;;;21.20;64.90;;;;;;5076378;28;20845;-69
2021/04/01 09:22:56;;;;;;;8.50;4.53;;;21.40;63.20;;;;;;5075985;28;20536;-69
2021/04/01 09:25:35;;;;;;;6.93;5.10;;;21.20;59.30;;;;;;5075630;28;20463;-69
2021/04/01 09:28:05;;;;;;;7.30;5.57;;;21.40;60.30;;;;;;5075754;28;20795;-68
2021/04/01 09:30:31;;;;;;;5.50;4.83;;;21.40;59.40;;;;;;5076139;28;20447;-69
2021/04/01 09:33:01;;;;;;;7.43;5.70;;;21.50;59.60;;;;;;5075481;28;20445;-69
2021/04/01 09:35:30;;;;;;;8.23;5.03;;;21.30;58.40;;;;;;5075889;28;20471;-69
2021/04/01 09:38:00;;;;;;;5.43;4.57;;;21.20;59.00;;;;;;5074159;28;20451;-68
2021/04/01 09:40:31;;;;;;;5.37;4.87;;;21.00;58.80;;;;;;5075833;28;20862;-68
2021/04/01 09:43:09;;;;;;;6.60;5.20;;;21.20;59.50;;;;;;5075454;28;20452;-69
2021/04/01 09:45:39;;;;;;;6.10;5.50;;;21.60;58.00;;;;;;5075147;28;20487;-68
2021/04/01 09:48:06;;;;;;;5.60;5.10;;;21.70;56.30;;;;;;5075377;28;20458;-69
2021/04/01 09:50:36;;;;;;;7.80;5.20;;;22.20;57.90;;;;;;5075556;28;20446;-69
2021/04/01 09:53:04;;;;;;;7.33;5.30;;;23.10;56.70;;;;;;5075648;28;20783;-69
2021/04/01 09:55:39;;;;;;;7.90;6.20;;;23.40;55.00;;;;;;5075302;28;20835;-69
2021/04/01 09:58:25;;;;;;;7.60;5.50;;;24.10;52.20;;;;;;5075178;28;20763;-69
2021/04/01 10:01:10;;;;;;;9.40;7.10;;;25.30;50.70;;;;;;5074963;28;20443;-69
2021/04/01 10:03:44;;;;;;;7.30;5.83;;;25.90;48.40;;;;;;5075356;28;20444;-69
2021/04/01 10:06:24;;;;;;;9.00;6.63;;;26.90;45.90;;;;;;5074783;28;20483;-69
2021/04/01 10:08:50;;;;;;;6.97;6.20;;;27.70;46.10;;;;;;5075102;28;20455;-69
2021/04/01 10:11:24;;;;;;;7.63;5.83;;;28.20;43.30;;;;;;5074920;28;20441;-69
2021/04/01 10:14:01;;;;;;;6.90;5.47;;;28.80;42.50;;;;;;5075230;28;20452;-69
2021/04/01 10:16:29;;;;;;;7.70;5.20;;;29.60;41.10;;;;;;5074846;28;20509;-69
2021/04/01 10:18:55;;;;;;;6.23;5.63;;;29.20;39.30;;;;;;5074790;28;20445;-69
2021/04/01 10:21:23;;;;;;;8.67;5.57;;;29.80;39.70;;;;;;5074723;28;20538;-69
2021/04/01 10:23:53;;;;;;;5.30;4.80;;;30.40;39.00;;;;;;5074893;28;20532;-69
2021/04/01 10:26:24;;;;;;;6.37;5.77;;;30.60;38.80;;;;;;5074932;28;20824;-69
2021/04/01 10:28:59;;;;;;;6.20;5.17;;;30.80;37.20;;;;;;5075018;28;20439;-69
2021/04/01 10:31:27;;;;;;;6.20;5.27;;;32.30;36.20;;;;;;5074653;28;20479;-70
2021/04/01 10:34:02;;;;;;;5.33;4.83;;;32.60;33.40;;;;;;5074289;28;20532;-69
2021/04/01 10:36:31;;;;;;;5.70;5.10;;;33.30;34.80;;;;;;5074228;28;20456;-69
2021/04/01 10:39:07;;;;;;;6.17;5.47;;;34.10;32.20;;;;;;5074741;28;20437;-70
2021/04/01 10:41:43;;;;;;;5.80;5.20;;;34.70;31.20;;;;;;5074764;28;20479;-68
2021/04/01 10:44:11;;;;;;;7.93;5.40;;;35.10;30.80;;;;;;5073900;28;20954;-68
2021/04/01 10:46:41;;;;;;;7.77;5.30;;;34.80;30.80;;;;;;5074032;28;20524;-67
2021/04/01 10:49:08;;;;;;;5.57;5.07;;;34.40;31.60;;;;;;5073963;28;20440;-68
2021/04/01 10:51:35;;;;;;;8.03;5.80;;;33.30;30.00;;;;;;5074138;28;20533;-68
2021/04/01 10:54:09;;;;;;;7.20;4.80;;;32.10;32.20;;;;;;5074003;28;20540;-67
2021/04/01 10:56:45;;;;;;;6.10;5.50;;;31.90;34.10;;;;;;5073904;28;20469;-67
2021/04/01 10:59:11;;;;;;;5.67;4.90;;;31.60;33.20;;;;;;5074101;28;20439;-68
2021/04/01 11:01:41;;;;;;;4.90;4.50;;;31.40;34.50;;;;;;5074009;28;20537;-68
2021/04/01 11:04:10;;;;;;;6.10;4.43;;;31.80;34.60;;;;;;5074373;28;20780;-67
2021/04/01 11:06:40;;;;;;;8.53;5.10;;;31.60;33.40;;;;;;5073373;28;20605;-67
2021/04/01 11:09:09;;;;;;;5.43;4.90;;;31.90;33.90;;;;;;5073977;28;20445;-67
2021/04/01 11:11:51;;;;;;;4.77;4.27;;;32.70;33.80;;;;;;5074067;28;20796;-68
2021/04/01 11:14:17;;;;;;;4.77;4.33;;;33.70;32.50;;;;;;5073606;28;20934;-68
2021/04/01 11:16:47;;;;;;;4.67;4.23;;;33.70;30.50;;;;;;5073577;28;20464;-68
2021/04/01 11:19:16;;;;;;;5.17;3.83;;;32.80;32.20;;;;;;5074312;28;20454;-68
2021/04/01 11:21:45;;;;;;;5.20;4.67;;;32.30;32.00;;;;;;5073753;28;20442;-67
2021/04/01 11:24:11;;;;;;;6.30;4.07;;;31.80;32.10;;;;;;5073921;28;20517;-67
2021/04/01 11:26:38;;;;;;;4.90;3.93;;;31.80;33.80;;;;;;5073650;28;20574;-67
2021/04/01 11:29:12;;;;;;;3.97;3.53;;;32.10;32.50;;;;;;5073692;28;20439;-67
2021/04/01 11:31:39;;;;;;;3.80;3.43;;;32.00;32.90;;;;;;5074047;28;20535;-67
2021/04/01 11:34:05;;;;;;;4.57;3.93;;;31.40;32.30;;;;;;5073684;28;20473;-67
2021/04/01 11:36:37;;;;;;;3.70;3.40;;;31.20;33.60;;;;;;5073111;28;21172;-67
2021/04/01 11:39:14;;;;;;;4.70;4.10;;;31.10;33.90;;;;;;5073848;28;20452;-67
2021/04/01 11:41:47;;;;;;;4.00;3.60;;;31.00;33.90;;;;;;5073990;28;20834;-69
2021/04/01 11:44:17;;;;;;;4.87;3.57;;;30.30;34.00;;;;;;5073738;28;20472;-69
2021/04/01 11:46:44;;;;;;;3.90;3.40;;;29.50;35.10;;;;;;5073133;28;20970;-69
2021/04/01 11:49:10;;;;;;;3.53;3.23;;;29.20;35.90;;;;;;5073239;28;20463;-69
2021/04/01 11:51:37;;;;;;;3.43;3.13;;;28.80;35.90;;;;;;5073782;28;20450;-69
2021/04/01 11:54:06;;;;;;;3.93;3.50;;;28.60;36.50;;;;;;5073789;28;20795;-69
2021/04/01 11:56:38;;;;;;;4.03;2.80;;;27.60;37.50;;;;;;5073466;28;20819;-69
2021/04/01 11:59:08;;;;;;;6.00;3.20;;;27.20;38.80;;;;;;5073526;28;20532;-69
2021/04/01 12:01:36;;;;;;;5.10;3.97;;;27.30;40.20;;;;;;5076425;28;20506;-69
2021/04/01 12:04:08;;;;;;;3.77;3.47;;;27.10;39.00;;;;;;5077431;28;20868;-69
2021/04/01 12:06:36;;;;;;;6.03;3.73;;;26.70;39.90;;;;;;5077534;28;20530;-69
2021/04/01 12:09:02;;;;;;;3.70;3.40;;;26.40;40.50;;;;;;5077697;28;20538;-69
2021/04/01 12:11:39;;;;;;;4.43;3.97;;;26.20;42.00;;;;;;5077257;28;20449;-69
2021/04/01 12:14:12;;;;;;;3.90;3.40;;;25.90;41.00;;;;;;5077448;28;20447;-69
2021/04/01 12:16:39;;;;;;;4.17;3.40;;;25.30;41.80;;;;;;5077301;28;20517;-68
2021/04/01 12:19:05;;;;;;;7.20;3.10;;;25.30;42.50;;;;;;5077086;28;20450;-69
2021/04/01 12:21:32;;;;;;;5.37;3.30;;;25.30;42.90;;;;;;5076814;28;20451;-69
2021/04/01 12:24:03;;;;;;;3.80;3.37;;;25.20;42.40;;;;;;5077089;28;20446;-69
2021/04/01 12:26:43;;;;;;;4.30;3.20;;;25.00;42.80;;;;;;5076600;28;20507;-69
2021/04/01 12:29:11;;;;;;;3.73;3.37;;;24.90;43.60;;;;;;5076868;28;20791;-69
2021/04/01 12:31:41;;;;;;;3.00;2.70;;;24.70;43.70;;;;;;5076946;28;20454;-69
2021/04/01 12:34:10;;;;;;;3.70;3.23;;;24.40;43.50;;;;;;5076904;28;20514;-69
2021/04/01 12:36:41;;;;;;;3.83;3.53;;;24.30;43.70;;;;;;5076300;28;20476;-69
2021/04/01 12:39:09;;;;;;;3.67;2.63;;;24.30;44.00;;;;;;5076790;28;20534;-68
2021/04/01 12:41:40;;;;;;;8.10;3.00;;;24.50;43.70;;;;;;5076727;28;20450;-69
2021/04/01 12:44:07;;;;;;;3.30;3.00;;;24.70;44.00;;;;;;5076631;28;20454;-69
2021/04/01 12:46:37;;;;;;;4.80;2.90;;;24.90;42.70;;;;;;5076421;28;20891;-68
2021/04/01 12:49:03;;;;;;;2.87;2.63;;;24.80;42.90;;;;;;5076552;28;20447;-69
2021/04/01 12:51:42;;;;;;;12.10;3.50;;;25.00;43.00;;;;;;5076480;28;20816;-69
2021/04/01 12:54:14;;;;;;;2.63;2.43;;;25.10;42.50;;;;;;5076777;28;20439;-69
2021/04/01 12:56:46;;;;;;;4.73;3.17;;;25.00;42.40;;;;;;5076214;28;20480;-69
2021/04/01 12:59:17;;;;;;;4.07;3.67;;;24.90;42.60;;;;;;5074739;28;20445;-69
2021/04/01 13:01:46;;;;;;;3.40;3.10;;;25.10;42.20;;;;;;5076377;28;20202;-69
2021/04/01 13:04:16;;;;;;;2.77;2.57;;;25.20;41.80;;;;;;5076292;28;20930;-68
2021/04/01 13:06:46;;;;;;;3.13;2.80;;;25.20;41.30;;;;;;5075927;28;20491;-69
2021/04/01 13:09:32;;;;;;;2.70;2.50;;;24.90;40.90;;;;;;5075876;28;20444;-69
2021/04/01 13:12:10;;;;;;;2.87;2.57;;;24.70;41.20;;;;;;5075861;28;20449;-69
2021/04/01 13:14:37;;;;;;;4.03;3.10;;;24.70;41.20;;;;;;5075973;28;20439;-69
2021/04/01 13:17:03;;;;;;;3.20;2.90;;;24.60;41.10;;;;;;5075823;28;20446;-69
2021/04/01 13:19:30;;;;;;;3.17;2.90;;;24.60;41.40;;;;;;5076241;28;20454;-69
2021/04/01 13:22:07;;;;;;;4.13;3.63;;;24.50;41.10;;;;;;5075937;28;20787;-69
2021/04/01 13:24:40;;;;;;;3.77;3.40;;;24.20;42.00;;;;;;5075876;28;20453;-68
2021/04/01 13:27:09;;;;;;;6.80;3.67;;;23.80;43.00;;;;;;5075645;28;20473;-69
2021/04/01 13:29:40;;;;;;;4.07;3.17;;;23.60;43.90;;;;;;5075744;28;20444;-68
2021/04/01 13:32:12;;;;;;;3.70;3.40;;;23.60;44.80;;;;;;5076110;28;20445;-69
2021/04/01 13:34:40;;;;;;;3.97;3.60;;;23.70;44.50;;;;;;5075578;28;20443;-69
2021/04/01 13:37:10;;;;;;;3.20;2.90;;;23.60;44.80;;;;;;5075472;28;20453;-69
2021/04/01 13:39:40;;;;;;;5.70;3.20;;;23.50;45.10;;;;;;5075800;28;20476;-69
2021/04/01 13:42:11;;;;;;;4.13;3.73;;;23.60;45.30;;;;;;5075826;28;20532;-69
2021/04/01 13:44:42;;;;;;;7.00;3.43;;;23.60;44.60;;;;;;5075307;28;20457;-69
2021/04/01 13:47:10;;;;;;;4.40;3.20;;;23.60;44.80;;;;;;5074973;28;21001;-69
2021/04/01 13:49:37;;;;;;;3.10;2.90;;;23.60;43.40;;;;;;5075475;28;20441;-68